createdAt,value
2022-10-09T00:02:36.209Z,10.31
2022-10-09T00:07:37.616Z,10.18
2022-10-09T00:12:38.988Z,10.18
2022-10-09T00:17:40.687Z,10.13
2022-10-09T00:22:42.176Z,10.19
2022-10-09T00:27:44.004Z,9.85
2022-10-09T00:32:45.512Z,9.93
2022-10-09T00:37:47.335Z,10.03
2022-10-09T00:42:56.224Z,10.07
2022-10-09T00:48:01.516Z,9.96
2022-10-09T00:53:02.887Z,9.83
2022-10-09T00:58:05.149Z,10.06
2022-10-09T01:03:06.569Z,10.04
2022-10-09T01:08:14.398Z,9.94
2022-10-09T01:13:35.949Z,9.94
2022-10-09T01:18:46.887Z,9.89
2022-10-09T01:23:56.341Z,10.07
2022-10-09T01:29:02.040Z,10.06
2022-10-09T01:34:04.092Z,10.11
2022-10-09T01:39:07.877Z,10.02
2022-10-09T01:44:20.882Z,10.13
2022-10-09T01:49:39.513Z,9.99
2022-10-09T01:55:10.768Z,9.92
2022-10-09T02:00:13.619Z,9.75
2022-10-09T02:05:23.268Z,9.77
2022-10-09T02:10:25.832Z,9.61
2022-10-09T02:15:33.725Z,9.45
2022-10-09T02:20:39.707Z,9.66
2022-10-09T02:25:41.303Z,9.66
2022-10-09T02:31:01.326Z,9.66
2022-10-09T02:36:03.366Z,9.41
2022-10-09T02:41:04.884Z,9.54
2022-10-09T02:46:06.381Z,9.46
2022-10-09T02:51:07.810Z,9.28
2022-10-09T02:56:09.266Z,9.40
2022-10-09T03:01:10.745Z,9.29
2022-10-09T03:06:20.623Z,9.60
2022-10-09T03:11:24.353Z,9.36
2022-10-09T03:16:27.016Z,9.11
2022-10-09T03:21:28.482Z,9.43
2022-10-09T03:26:29.859Z,9.12
2022-10-09T03:31:51.130Z,9.33
2022-10-09T03:36:52.582Z,9.24
2022-10-09T03:41:53.965Z,9.00
2022-10-09T03:46:55.408Z,9.15
2022-10-09T03:51:56.922Z,9.31
2022-10-09T03:56:58.339Z,9.37
2022-10-09T04:01:59.795Z,9.52
2022-10-09T04:07:01.166Z,9.61
2022-10-09T04:12:02.550Z,9.35
2022-10-09T04:17:03.933Z,9.42
2022-10-09T04:22:05.451Z,9.35
2022-10-09T04:27:06.866Z,9.24
2022-10-09T04:32:08.445Z,9.29
2022-10-09T04:37:09.814Z,9.30
2022-10-09T04:42:11.203Z,9.34
2022-10-09T04:47:12.699Z,9.44
2022-10-09T04:52:14.068Z,9.31
2022-10-09T04:57:15.535Z,8.88
2022-10-09T05:02:16.977Z,8.84
2022-10-09T05:07:18.405Z,9.07
2022-10-09T05:12:19.794Z,9.09
2022-10-09T05:17:23.478Z,9.15
2022-10-09T05:22:25.081Z,8.90
2022-10-09T05:27:26.509Z,8.66
2022-10-09T05:32:27.888Z,8.69
2022-10-09T05:37:29.333Z,8.96
2022-10-09T05:42:30.737Z,8.87
2022-10-09T05:47:32.129Z,8.66
2022-10-09T05:52:35.493Z,8.58
2022-10-09T05:57:36.861Z,8.84
2022-10-09T06:02:38.291Z,8.95
2022-10-09T06:07:39.695Z,8.88
2022-10-09T06:12:41.118Z,8.42
2022-10-09T06:17:42.545Z,8.81
2022-10-09T06:22:43.910Z,8.71
2022-10-09T06:27:45.277Z,8.90
2022-10-09T06:32:46.975Z,8.82
2022-10-09T06:37:48.618Z,8.68
2022-10-09T06:42:50.199Z,8.42
2022-10-09T06:47:52.002Z,8.34
2022-10-09T06:52:53.376Z,8.51
2022-10-09T06:57:54.783Z,8.34
2022-10-09T07:02:56.253Z,8.36
2022-10-09T07:07:57.670Z,8.72
2022-10-09T07:12:59.036Z,8.92
2022-10-09T07:18:02.679Z,8.94
2022-10-09T07:23:04.047Z,8.92
2022-10-09T07:28:05.429Z,9.25
2022-10-09T07:33:06.850Z,8.53
2022-10-09T07:38:08.237Z,9.04
2022-10-09T07:43:09.658Z,8.78
2022-10-09T07:48:11.227Z,8.81
2022-10-09T07:53:12.656Z,9.15
2022-10-09T07:58:15.287Z,9.16
2022-10-09T08:03:16.733Z,8.29
2022-10-09T08:08:18.097Z,8.24
2022-10-09T08:13:19.498Z,8.86
2022-10-09T08:18:20.853Z,9.78
2022-10-09T08:23:22.234Z,10.02
2022-10-09T08:28:23.672Z,10.22
2022-10-09T08:33:25.182Z,10.27
2022-10-09T08:38:46.174Z,9.19
2022-10-09T08:43:52.120Z,9.59
2022-10-09T08:48:54.726Z,9.27
2022-10-09T08:54:05.532Z,9.64
2022-10-09T08:59:10.899Z,9.89
2022-10-09T09:04:41.308Z,9.81
2022-10-09T09:09:59.711Z,10.06
2022-10-09T09:15:39.114Z,10.23
2022-10-09T09:20:55.311Z,11.15
2022-10-09T09:25:57.072Z,11.06
2022-10-09T09:31:30.219Z,11.06
2022-10-09T09:36:38.623Z,11.72
2022-10-09T09:41:41.678Z,11.71
2022-10-09T09:46:46.153Z,11.78
2022-10-09T09:51:49.473Z,11.90
2022-10-09T09:57:11.947Z,12.26
2022-10-09T10:02:22.814Z,12.36
2022-10-09T10:07:34.599Z,12.53
2022-10-09T10:12:52.849Z,12.63
2022-10-09T10:18:06.671Z,12.69
2022-10-09T10:23:41.903Z,12.78
2022-10-09T10:29:08.762Z,12.78
2022-10-09T10:34:18.538Z,12.82
2022-10-09T10:39:41.510Z,12.99
2022-10-09T10:44:52.288Z,13.00
2022-10-09T10:49:53.956Z,13.37
2022-10-09T10:55:15.656Z,13.16
2022-10-09T11:00:17.747Z,13.18
2022-10-09T11:05:36.732Z,13.41
2022-10-09T11:10:58.255Z,13.40
2022-10-09T11:16:13.789Z,13.35
2022-10-09T11:21:52.963Z,13.44
2022-10-09T11:27:22.700Z,13.31
2022-10-09T11:32:36.232Z,13.34
2022-10-09T11:37:40.838Z,13.36
2022-10-09T11:42:42.578Z,13.82
2022-10-09T11:48:03.134Z,13.73
2022-10-09T11:53:10.583Z,13.44
2022-10-09T11:58:23.776Z,13.29
2022-10-09T12:03:34.875Z,13.34
2022-10-09T12:08:39.026Z,13.47
2022-10-09T12:13:45.592Z,13.63
2022-10-09T12:18:47.796Z,13.54
2022-10-09T12:23:50.304Z,13.57
2022-10-09T12:29:00.000Z,13.61
2022-10-09T12:34:26.351Z,13.56
2022-10-09T12:39:27.717Z,13.50
2022-10-09T12:44:32.898Z,13.73
2022-10-09T12:49:34.880Z,13.89
2022-10-09T12:54:43.163Z,13.67
2022-10-09T12:59:46.693Z,13.93
2022-10-09T13:04:57.666Z,13.90
2022-10-09T13:10:07.263Z,13.82
2022-10-09T13:15:34.991Z,13.86
2022-10-09T13:20:36.370Z,13.80
2022-10-09T13:25:42.349Z,13.66
2022-10-09T13:30:43.823Z,13.90
2022-10-09T13:35:46.158Z,14.00
2022-10-09T13:40:47.581Z,13.83
2022-10-09T13:45:49.115Z,13.86
2022-10-09T13:50:50.501Z,13.83
2022-10-09T13:55:54.941Z,13.79
2022-10-09T14:00:58.743Z,13.95
2022-10-09T14:06:01.816Z,13.85
2022-10-09T14:11:03.388Z,13.90
2022-10-09T14:16:06.329Z,13.72
2022-10-09T14:21:15.374Z,13.80
2022-10-09T14:26:17.142Z,13.69
2022-10-09T14:31:18.766Z,13.67
2022-10-09T14:36:20.235Z,13.46
2022-10-09T14:41:22.261Z,13.48
2022-10-09T14:46:24.764Z,13.46
2022-10-09T14:51:27.355Z,13.46
2022-10-09T14:56:29.001Z,13.61
2022-10-09T15:01:30.373Z,13.63
2022-10-09T15:06:33.228Z,13.45
2022-10-09T15:11:35.490Z,13.52
2022-10-09T15:16:36.943Z,13.58
2022-10-09T15:21:38.370Z,13.51
2022-10-09T15:26:39.748Z,13.44
2022-10-09T15:31:41.753Z,13.38
2022-10-09T15:36:43.306Z,13.43
2022-10-09T15:41:46.483Z,13.45
2022-10-09T15:46:48.846Z,13.43
2022-10-09T15:51:50.279Z,13.29
2022-10-09T15:56:51.661Z,13.33
2022-10-09T16:01:53.171Z,13.32
2022-10-09T16:06:54.726Z,13.26
2022-10-09T16:11:56.102Z,13.25
2022-10-09T16:16:58.172Z,13.25
2022-10-09T16:21:59.579Z,13.35
2022-10-09T16:27:00.946Z,13.40
2022-10-09T16:32:02.359Z,13.41
2022-10-09T16:37:03.755Z,13.52
2022-10-09T16:42:05.202Z,13.47
2022-10-09T16:47:06.594Z,13.43
2022-10-09T16:52:09.165Z,13.29
2022-10-09T16:57:10.597Z,13.27
2022-10-09T17:02:13.473Z,13.26
2022-10-09T17:07:15.346Z,13.08
2022-10-09T17:12:17.274Z,12.91
2022-10-09T17:17:18.690Z,13.02
2022-10-09T17:22:20.050Z,12.84
2022-10-09T17:27:21.449Z,12.90
2022-10-09T17:32:22.835Z,12.92
2022-10-09T17:37:27.262Z,12.86
2022-10-09T17:42:28.671Z,12.74
2022-10-09T17:47:30.082Z,12.71
2022-10-09T17:52:31.503Z,12.55
2022-10-09T17:57:32.879Z,12.58
2022-10-09T18:02:34.319Z,12.50
2022-10-09T18:07:35.715Z,12.49
2022-10-09T18:12:37.123Z,12.31
2022-10-09T18:17:38.939Z,12.27
2022-10-09T18:22:40.302Z,12.15
2022-10-09T18:27:41.644Z,12.15
2022-10-09T18:32:43.026Z,12.14
2022-10-09T18:37:44.466Z,12.13
2022-10-09T18:42:45.849Z,11.87
2022-10-09T18:47:47.390Z,11.88
2022-10-09T18:52:49.073Z,11.88
2022-10-09T18:57:50.786Z,11.97
2022-10-09T19:02:52.209Z,11.99
2022-10-09T19:07:53.605Z,11.82
2022-10-09T19:12:55.002Z,11.77
2022-10-09T19:17:56.452Z,11.76
2022-10-09T19:22:57.861Z,11.82
2022-10-09T19:27:59.285Z,11.61
2022-10-09T19:33:00.678Z,11.62
2022-10-09T19:38:02.193Z,11.44
2022-10-09T19:43:03.573Z,11.35
2022-10-09T19:48:05.092Z,11.35
2022-10-09T19:53:06.710Z,11.48
2022-10-09T19:58:08.181Z,11.46
2022-10-09T20:03:09.837Z,11.32
2022-10-09T20:08:11.222Z,11.26
2022-10-09T20:13:12.611Z,11.14
2022-10-09T20:18:14.026Z,11.21
2022-10-09T20:23:15.475Z,11.20
2022-10-09T20:28:16.914Z,11.10
2022-10-09T20:33:18.566Z,11.08
2022-10-09T20:38:25.392Z,10.90
2022-10-09T20:43:27.225Z,11.13
2022-10-09T20:48:28.606Z,11.08
2022-10-09T20:53:30.073Z,11.06
2022-10-09T20:58:31.767Z,11.06
2022-10-09T21:03:34.198Z,10.84
2022-10-09T21:08:36.024Z,10.97
2022-10-09T21:13:38.727Z,10.87
2022-10-09T21:18:40.171Z,10.66
2022-10-09T21:23:42.105Z,10.67
2022-10-09T21:28:45.065Z,10.76
2022-10-09T21:33:46.847Z,10.75
2022-10-09T21:38:48.206Z,10.71
2022-10-09T21:43:49.589Z,10.62
2022-10-09T21:48:51.066Z,10.70
2022-10-09T21:53:53.838Z,10.55
2022-10-09T21:58:55.201Z,10.46
2022-10-09T22:03:56.590Z,10.49
2022-10-09T22:09:01.703Z,10.35
2022-10-09T22:14:05.029Z,10.54
2022-10-09T22:19:06.379Z,10.52
2022-10-09T22:24:07.733Z,10.51
2022-10-09T22:29:09.078Z,10.43
2022-10-09T22:34:10.425Z,10.36
2022-10-09T22:39:13.507Z,10.28
2022-10-09T22:44:14.921Z,10.46
2022-10-09T22:49:16.696Z,10.36
2022-10-09T22:54:18.092Z,10.40
2022-10-09T22:59:19.490Z,10.29
2022-10-09T23:04:22.309Z,10.09
2022-10-09T23:09:26.264Z,10.03
2022-10-09T23:14:27.683Z,10.25
2022-10-09T23:19:29.072Z,10.19
2022-10-09T23:24:30.450Z,10.10
2022-10-09T23:29:31.842Z,9.87
2022-10-09T23:34:33.209Z,10.17
2022-10-09T23:39:34.574Z,10.14
2022-10-09T23:44:35.962Z,10.14
2022-10-09T23:49:37.442Z,9.92
2022-10-09T23:54:38.830Z,10.12
2022-10-09T23:59:40.331Z,10.07
